To NAV CANADA Home Page Login to a new session Search on AWWS site Disclaimer Vers la page française équivalente Tips FAQ What's new on the site To the Forecasts and Observations / NOTAM section To "File a Flight Plan" website Publications and other links Update of the User's profile FIC Telephone Numbers My Weather Data Folder Route Weather Data Regional Weather Data Local Weather Data To the Forecasts and Observations / NOTAM section
Request Generated 10/27/2020 at 09:16:19 UTC . Weather information available at that time is displayed.

METAR/TAF

TORONTO/OSHAWA EXECUTIVE AIRPORT/ON    (show WxCam)

METAR CYOO 270900Z AUTO 02005KT 9SM SCT016 OVC120 05/04 A3023 RMK SLP241=
METAR CYOO 270800Z AUTO 36005KT 9SM FEW065 OVC110 05/04 A3022 RMK SLP239=
METAR CYOO 270700Z AUTO 28004KT 9SM FEW039 OVC120 05/03 A3023 RMK SLP244=

TAF CYOO 270739Z 2708/2720 28005KT P6SM FEW040 OVC120 TEMPO 2708/2715
BKN020 OVC120 PROB30 2708/2713 1SM BR
FM271500 04006KT P6SM BKN012 BKN070 TEMPO 2715/2718 SCT012 BKN070
FM271800 VRB03KT P6SM -SHRA OVC020
RMK FCST BASED ON AUTO OBS. NXT FCST BY 271400Z=
Your time UTC time
Weather data provided by Environment Canada and NAV CANADA